createdAt,value
2022-09-12T00:00:02.289Z,14.10
2022-09-12T00:02:30.183Z,14.20
2022-09-12T00:04:58.102Z,14.10
2022-09-12T00:07:25.955Z,14.00
2022-09-12T00:09:53.791Z,13.90
2022-09-12T00:12:22.982Z,13.90
2022-09-12T00:14:50.844Z,13.70
2022-09-12T00:17:18.785Z,13.70
2022-09-12T00:19:46.632Z,13.80
2022-09-12T00:22:14.496Z,13.80
2022-09-12T00:24:42.331Z,13.80
2022-09-12T00:27:10.248Z,13.70
2022-09-12T00:29:39.512Z,13.70
2022-09-12T00:32:07.353Z,13.60
2022-09-12T00:34:35.206Z,13.70
2022-09-12T00:37:03.064Z,13.80
2022-09-12T00:39:31.036Z,13.70
2022-09-12T00:41:58.934Z,13.60
2022-09-12T00:44:52.843Z,13.60
2022-09-12T00:47:26.498Z,13.60
2022-09-12T00:50:00.929Z,13.50
2022-09-12T00:52:33.710Z,13.70
2022-09-12T00:55:06.522Z,13.70
2022-09-12T00:57:38.604Z,13.70
2022-09-12T01:00:14.504Z,13.60
2022-09-12T01:02:43.944Z,13.60
2022-09-12T01:05:12.374Z,13.50
2022-09-12T01:07:41.800Z,13.40
2022-09-12T01:10:10.935Z,13.30
2022-09-12T01:12:41.111Z,13.40
2022-09-12T01:15:11.372Z,13.40
2022-09-12T01:17:50.177Z,13.50
2022-09-12T01:20:46.381Z,13.50
2022-09-12T01:23:40.069Z,13.30
2022-09-12T01:26:45.371Z,13.20
2022-09-12T01:29:38.160Z,13.20
2022-09-12T01:32:13.844Z,13.30
2022-09-12T01:34:47.838Z,13.40
2022-09-12T01:37:22.455Z,13.30
2022-09-12T01:39:55.976Z,13.20
2022-09-12T01:42:32.536Z,13.20
2022-09-12T01:45:07.382Z,13.20
2022-09-12T01:47:41.995Z,13.30
2022-09-12T01:50:15.094Z,13.30
2022-09-12T01:52:50.033Z,13.20
2022-09-12T01:55:22.467Z,13.10
2022-09-12T01:57:56.042Z,13.00
2022-09-12T02:00:24.178Z,13.00
2022-09-12T02:02:57.367Z,13.00
2022-09-12T02:05:31.956Z,13.00
2022-09-12T02:08:04.931Z,13.20
2022-09-12T02:10:36.724Z,13.10
2022-09-12T02:13:10.808Z,13.10
2022-09-12T02:15:42.108Z,13.10
2022-09-12T02:18:14.583Z,13.10
2022-09-12T02:20:48.470Z,13.00
2022-09-12T02:23:21.533Z,13.00
2022-09-12T02:25:53.749Z,13.00
2022-09-12T02:28:26.493Z,13.00
2022-09-12T02:31:02.242Z,13.00
2022-09-12T02:33:44.357Z,12.90
2022-09-12T02:36:23.931Z,13.10
2022-09-12T02:38:52.057Z,12.90
2022-09-12T02:41:22.479Z,12.80
2022-09-12T02:43:52.612Z,12.90
2022-09-12T02:46:26.437Z,13.00
2022-09-12T02:48:56.124Z,12.80
2022-09-12T02:51:24.305Z,12.90
2022-09-12T02:53:52.460Z,12.90
2022-09-12T02:56:24.634Z,12.60
2022-09-12T02:58:53.652Z,12.70
2022-09-12T03:01:34.891Z,12.60
2022-09-12T03:04:30.932Z,12.70
2022-09-12T03:07:12.392Z,12.50
2022-09-12T03:09:48.437Z,12.40
2022-09-12T03:12:31.902Z,12.40
2022-09-12T03:15:10.827Z,12.30
2022-09-12T03:17:57.963Z,12.30
2022-09-12T03:20:42.660Z,12.20
2022-09-12T03:23:20.123Z,12.30
2022-09-12T03:25:53.167Z,12.40
2022-09-12T03:28:23.080Z,12.40
2022-09-12T03:30:54.235Z,12.30
2022-09-12T03:33:23.891Z,12.30
2022-09-12T03:35:54.264Z,12.20
2022-09-12T03:38:22.163Z,12.30
2022-09-12T03:40:54.525Z,12.20
2022-09-12T03:43:23.009Z,12.30
2022-09-12T03:45:52.783Z,12.20
2022-09-12T03:48:20.749Z,12.20
2022-09-12T03:50:48.585Z,12.10
2022-09-12T03:53:17.862Z,12.00
2022-09-12T03:55:45.829Z,12.00
2022-09-12T03:58:13.744Z,12.10
2022-09-12T04:00:42.911Z,12.10
2022-09-12T04:03:10.938Z,12.10
2022-09-12T04:05:38.982Z,12.10
2022-09-12T04:08:06.819Z,12.10
2022-09-12T04:10:36.066Z,12.20
2022-09-12T04:13:04.031Z,12.20
2022-09-12T04:15:32.239Z,12.20
2022-09-12T04:18:05.083Z,12.10
2022-09-12T04:20:33.793Z,12.10
2022-09-12T04:23:01.623Z,12.10
2022-09-12T04:25:31.398Z,12.10
2022-09-12T04:28:00.674Z,12.10
2022-09-12T04:30:28.604Z,12.10
2022-09-12T04:32:56.488Z,12.10
2022-09-12T04:35:24.310Z,12.10
2022-09-12T04:37:52.179Z,12.10
2022-09-12T04:40:20.228Z,12.10
2022-09-12T04:42:48.142Z,12.20
2022-09-12T04:45:17.507Z,12.20
2022-09-12T04:47:46.477Z,12.20
2022-09-12T04:50:14.881Z,12.20
2022-09-12T04:52:42.917Z,12.20
2022-09-12T04:55:11.119Z,12.20
2022-09-12T04:57:38.997Z,12.10
2022-09-12T05:00:08.205Z,12.10
2022-09-12T05:02:37.443Z,12.10
2022-09-12T05:05:06.158Z,12.10
2022-09-12T05:07:34.116Z,12.20
2022-09-12T05:10:03.354Z,12.20
2022-09-12T05:12:31.820Z,12.30
2022-09-12T05:14:59.768Z,12.20
2022-09-12T05:17:29.666Z,12.30
2022-09-12T05:19:58.890Z,12.20
2022-09-12T05:22:26.777Z,12.10
2022-09-12T05:24:54.598Z,12.10
2022-09-12T05:27:22.446Z,12.20
2022-09-12T05:29:50.313Z,12.30
2022-09-12T05:32:18.194Z,12.40
2022-09-12T05:34:46.113Z,12.50
2022-09-12T05:37:15.367Z,12.50
2022-09-12T05:39:43.292Z,12.60
2022-09-12T05:42:12.120Z,12.60
2022-09-12T05:44:40.029Z,12.70
2022-09-12T05:47:07.951Z,12.80
2022-09-12T05:49:37.142Z,12.80
2022-09-12T05:52:05.172Z,12.80
2022-09-12T05:54:34.582Z,12.90
2022-09-12T05:57:02.439Z,13.00
2022-09-12T05:59:30.309Z,13.10
2022-09-12T06:01:58.438Z,13.10
2022-09-12T06:04:27.978Z,13.30
2022-09-12T06:06:55.861Z,13.40
2022-09-12T06:09:25.336Z,13.40
2022-09-12T06:11:55.949Z,13.50
2022-09-12T06:14:24.097Z,13.60
2022-09-12T06:16:52.062Z,13.60
2022-09-12T06:19:21.580Z,13.70
2022-09-12T06:21:50.216Z,13.80
2022-09-12T06:24:18.639Z,13.80
2022-09-12T06:26:47.336Z,13.90
2022-09-12T06:29:17.167Z,14.00
2022-09-12T06:31:45.772Z,14.10
2022-09-12T06:34:15.988Z,14.10
2022-09-12T06:36:45.974Z,14.20
2022-09-12T06:39:15.413Z,14.30
2022-09-12T06:41:44.426Z,14.40
2022-09-12T06:44:15.516Z,14.50
2022-09-12T06:46:45.241Z,14.50
2022-09-12T06:49:13.453Z,14.60
2022-09-12T06:51:43.259Z,14.70
2022-09-12T06:54:13.609Z,14.80
2022-09-12T06:56:41.438Z,14.90
2022-09-12T06:59:09.761Z,15.00
2022-09-12T07:01:37.939Z,15.10
2022-09-12T07:04:07.430Z,15.20
2022-09-12T07:06:38.411Z,15.40
2022-09-12T07:09:08.867Z,15.40
2022-09-12T07:11:38.616Z,15.60
2022-09-12T07:14:09.133Z,15.70
2022-09-12T07:16:37.676Z,15.80
2022-09-12T07:19:08.656Z,16.00
2022-09-12T07:21:39.794Z,16.10
2022-09-12T07:24:09.822Z,16.10
2022-09-12T07:26:38.067Z,16.10
2022-09-12T07:29:34.788Z,16.20
2022-09-12T07:31:54.621Z,16.20
2022-09-12T07:34:23.818Z,16.20
2022-09-12T07:36:51.751Z,16.20
2022-09-12T07:39:20.018Z,16.30
2022-09-12T07:41:48.110Z,16.30
2022-09-12T07:44:16.054Z,16.50
2022-09-12T07:46:46.023Z,16.50
2022-09-12T07:49:14.144Z,16.50
2022-09-12T07:51:43.507Z,16.50
2022-09-12T07:54:12.320Z,16.50
2022-09-12T07:56:40.811Z,16.70
2022-09-12T07:59:09.226Z,16.70
2022-09-12T08:01:37.398Z,16.70
2022-09-12T08:04:05.918Z,16.80
2022-09-12T08:06:36.895Z,16.80
2022-09-12T08:09:07.867Z,16.90
2022-09-12T08:11:36.233Z,16.90
2022-09-12T08:14:05.911Z,16.90
2022-09-12T08:16:35.063Z,17.00
2022-09-12T08:19:03.416Z,17.00
2022-09-12T08:21:33.308Z,17.00
2022-09-12T08:24:03.713Z,17.00
2022-09-12T08:26:34.337Z,17.20
2022-09-12T08:29:03.768Z,17.40
2022-09-12T08:31:36.420Z,17.40
2022-09-12T08:34:06.092Z,17.40
2022-09-12T08:36:34.123Z,17.60
2022-09-12T08:39:04.411Z,17.90
2022-09-12T08:41:36.415Z,18.00
2022-09-12T08:44:17.435Z,18.10
2022-09-12T08:46:56.720Z,18.20
2022-09-12T08:49:31.219Z,18.40
2022-09-12T08:52:07.184Z,18.10
2022-09-12T08:54:38.190Z,18.30
2022-09-12T08:57:11.662Z,18.50
2022-09-12T08:59:45.117Z,18.40
2022-09-12T09:02:43.214Z,18.40
2022-09-12T09:05:21.059Z,18.50
2022-09-12T09:08:05.689Z,18.50
2022-09-12T09:10:43.692Z,18.60
2022-09-12T09:13:39.463Z,18.90
2022-09-12T09:16:15.747Z,18.90
2022-09-12T09:18:44.571Z,19.20
2022-09-12T09:21:21.311Z,19.20
2022-09-12T09:23:54.701Z,19.10
2022-09-12T09:26:27.976Z,19.20
2022-09-12T09:29:00.468Z,19.40
2022-09-12T09:31:34.575Z,19.60
2022-09-12T09:34:10.195Z,19.70
2022-09-12T09:36:49.697Z,19.70
2022-09-12T09:39:28.560Z,19.70
2022-09-12T09:42:11.507Z,19.70
2022-09-12T09:44:41.161Z,19.90
2022-09-12T09:47:13.604Z,20.00
2022-09-12T09:49:42.495Z,19.90
2022-09-12T09:52:15.323Z,20.10
2022-09-12T09:54:49.496Z,20.10
2022-09-12T09:57:42.855Z,20.10
2022-09-12T10:00:31.549Z,20.40
2022-09-12T10:03:18.860Z,20.10
2022-09-12T10:05:51.435Z,20.00
2022-09-12T10:08:24.691Z,20.30
2022-09-12T10:11:01.884Z,20.50
2022-09-12T10:13:42.140Z,20.30
2022-09-12T10:16:24.683Z,20.30
2022-09-12T10:18:53.905Z,20.40
2022-09-12T10:21:29.549Z,20.60
2022-09-12T10:24:15.692Z,20.60
2022-09-12T10:26:45.980Z,20.60
2022-09-12T10:29:18.944Z,20.80
2022-09-12T10:31:52.141Z,20.80
2022-09-12T10:34:30.628Z,20.80
2022-09-12T10:37:05.587Z,20.90
2022-09-12T10:39:36.072Z,21.10
2022-09-12T10:42:05.516Z,21.30
2022-09-12T10:44:35.760Z,21.10
2022-09-12T10:47:24.275Z,21.30
2022-09-12T10:49:52.354Z,21.20
2022-09-12T10:52:24.282Z,21.00
2022-09-12T10:54:52.916Z,21.00
2022-09-12T10:57:53.428Z,20.90
2022-09-12T11:00:27.704Z,21.20
2022-09-12T11:03:07.602Z,21.40
2022-09-12T11:05:45.310Z,21.70
2022-09-12T11:08:26.197Z,21.80
2022-09-12T11:11:01.006Z,21.70
2022-09-12T11:13:48.252Z,21.40
2022-09-12T11:16:26.669Z,21.30
2022-09-12T11:19:22.345Z,21.50
2022-09-12T11:22:14.714Z,21.70
2022-09-12T11:25:00.640Z,21.70
2022-09-12T11:27:45.977Z,22.10
2022-09-12T11:30:17.546Z,22.10
2022-09-12T11:33:08.247Z,22.30
2022-09-12T11:35:44.895Z,22.60
2022-09-12T11:38:26.013Z,22.30
2022-09-12T11:40:56.284Z,22.40
2022-09-12T11:43:35.438Z,22.30
2022-09-12T11:46:13.438Z,22.50
2022-09-12T11:48:46.593Z,22.30
2022-09-12T11:51:20.895Z,22.00
2022-09-12T11:54:03.339Z,22.10
2022-09-12T11:56:31.602Z,22.20
2022-09-12T11:59:05.448Z,22.40
2022-09-12T12:01:43.900Z,22.80
2022-09-12T12:04:21.616Z,23.10
2022-09-12T12:06:59.099Z,23.00
2022-09-12T12:09:26.996Z,23.30
2022-09-12T12:11:58.598Z,23.40
2022-09-12T12:14:31.887Z,23.50
2022-09-12T12:17:00.053Z,23.30
2022-09-12T12:19:35.724Z,23.40
2022-09-12T12:22:16.502Z,23.60
2022-09-12T12:25:29.403Z,23.60
2022-09-12T12:27:59.123Z,23.70
2022-09-12T12:31:05.819Z,23.70
2022-09-12T12:34:16.327Z,23.90
2022-09-12T12:36:44.575Z,24.10
2022-09-12T12:40:05.668Z,23.90
2022-09-12T12:43:31.410Z,23.70
2022-09-12T12:46:13.834Z,23.80
2022-09-12T12:49:05.182Z,24.00
2022-09-12T12:51:55.893Z,24.10
2022-09-12T12:54:53.260Z,24.00
2022-09-12T12:57:40.614Z,24.10
2022-09-12T13:00:29.922Z,24.00
2022-09-12T13:03:00.904Z,23.60
2022-09-12T13:05:31.893Z,23.80
2022-09-12T13:08:04.491Z,23.90
2022-09-12T13:10:32.831Z,24.00
2022-09-12T13:13:05.246Z,24.10
2022-09-12T13:16:05.128Z,24.20
2022-09-12T13:18:44.220Z,24.20
2022-09-12T13:21:15.151Z,24.00
2022-09-12T13:23:43.956Z,24.00
2022-09-12T13:26:14.483Z,24.10
2022-09-12T13:28:42.524Z,24.60
2022-09-12T13:31:20.766Z,24.90
2022-09-12T13:33:50.583Z,25.10
2022-09-12T13:36:41.465Z,25.30
2022-09-12T13:39:20.617Z,25.40
2022-09-12T13:42:14.873Z,25.30
2022-09-12T13:44:45.496Z,25.00
2022-09-12T13:47:21.379Z,24.80
2022-09-12T13:49:50.074Z,24.90
2022-09-12T13:52:21.241Z,25.20
2022-09-12T13:54:53.059Z,25.20
2022-09-12T13:57:37.569Z,25.20
2022-09-12T14:00:10.414Z,25.00
2022-09-12T14:02:41.555Z,25.00
2022-09-12T14:05:13.541Z,24.60
2022-09-12T14:07:55.009Z,24.50
2022-09-12T14:10:28.292Z,24.50
2022-09-12T14:12:57.460Z,24.70
2022-09-12T14:15:28.706Z,24.60
2022-09-12T14:18:01.568Z,24.50
2022-09-12T14:20:32.618Z,24.60
2022-09-12T14:23:03.538Z,24.50
2022-09-12T14:25:38.541Z,24.60
2022-09-12T14:28:06.915Z,24.40
2022-09-12T14:30:37.158Z,24.30
2022-09-12T14:33:20.784Z,24.40
2022-09-12T14:35:50.493Z,24.20
2022-09-12T14:38:27.003Z,24.30
2022-09-12T14:41:01.979Z,24.30
2022-09-12T14:43:32.678Z,24.40
2022-09-12T14:46:03.002Z,24.10
2022-09-12T14:48:37.369Z,24.10
2022-09-12T14:51:07.164Z,24.20
2022-09-12T14:53:36.865Z,24.30
2022-09-12T14:56:09.940Z,24.40
2022-09-12T14:58:38.561Z,24.30
2022-09-12T15:01:25.269Z,24.20
2022-09-12T15:03:57.221Z,24.10
2022-09-12T15:06:30.248Z,24.10
2022-09-12T15:09:00.676Z,24.10
2022-09-12T15:11:28.920Z,24.20
2022-09-12T15:13:56.808Z,24.20
2022-09-12T15:16:24.748Z,24.00
2022-09-12T15:18:54.097Z,24.10
2022-09-12T15:21:22.901Z,24.10
2022-09-12T15:23:51.892Z,24.10
2022-09-12T15:26:22.441Z,24.10
2022-09-12T15:28:50.705Z,24.00
2022-09-12T15:31:25.733Z,23.90
2022-09-12T15:33:56.963Z,23.90
2022-09-12T15:36:25.590Z,23.90
2022-09-12T15:38:54.181Z,24.10
2022-09-12T15:41:23.926Z,23.90
2022-09-12T15:43:52.392Z,23.90
2022-09-12T15:46:20.643Z,23.90
2022-09-12T15:48:48.671Z,23.80
2022-09-12T15:51:19.706Z,23.80
2022-09-12T15:53:48.617Z,23.70
2022-09-12T15:56:17.844Z,23.70
2022-09-12T15:58:58.144Z,23.90
2022-09-12T16:01:27.475Z,24.00
2022-09-12T16:03:55.731Z,23.90
2022-09-12T16:06:25.258Z,23.90
2022-09-12T16:08:53.202Z,23.80
2022-09-12T16:11:22.838Z,23.80
2022-09-12T16:13:52.503Z,23.90
2022-09-12T16:16:20.798Z,23.60
2022-09-12T16:18:48.839Z,23.50
2022-09-12T16:21:16.891Z,23.60
2022-09-12T16:23:46.659Z,23.70
2022-09-12T16:26:14.885Z,23.60
2022-09-12T16:28:43.207Z,23.60
2022-09-12T16:31:14.467Z,23.60
2022-09-12T16:33:42.463Z,23.50
2022-09-12T16:36:12.616Z,23.40
2022-09-12T16:38:46.064Z,23.40
2022-09-12T16:41:14.607Z,23.10
2022-09-12T16:43:42.933Z,23.00
2022-09-12T16:46:12.580Z,23.00
2022-09-12T16:48:49.377Z,23.10
2022-09-12T16:51:21.639Z,23.10
2022-09-12T16:53:51.381Z,23.20
2022-09-12T16:56:19.655Z,23.20
2022-09-12T16:58:47.779Z,23.00
2022-09-12T17:01:17.875Z,22.90
2022-09-12T17:03:46.313Z,22.70
2022-09-12T17:06:16.617Z,22.70
2022-09-12T17:08:47.355Z,22.50
2022-09-12T17:11:20.693Z,22.40
2022-09-12T17:14:06.531Z,22.30
2022-09-12T17:16:36.095Z,22.20
2022-09-12T17:19:04.997Z,22.10
2022-09-12T17:21:36.376Z,21.80
2022-09-12T17:24:04.671Z,21.70
2022-09-12T17:26:34.502Z,21.60
2022-09-12T17:29:03.181Z,21.40
2022-09-12T17:31:31.206Z,21.30
2022-09-12T17:34:00.724Z,21.30
2022-09-12T17:36:31.929Z,21.20
2022-09-12T17:39:00.298Z,21.10
2022-09-12T17:41:31.761Z,20.90
2022-09-12T17:44:03.522Z,20.60
2022-09-12T17:46:34.988Z,20.50
2022-09-12T17:49:04.671Z,20.30
2022-09-12T17:51:32.747Z,20.30
2022-09-12T17:54:03.011Z,20.00
2022-09-12T17:56:32.973Z,20.10
2022-09-12T17:59:02.660Z,20.20
2022-09-12T18:01:49.361Z,19.90
2022-09-12T18:04:17.863Z,19.70
2022-09-12T18:06:48.959Z,19.70
2022-09-12T18:09:20.253Z,19.70
2022-09-12T18:11:49.569Z,19.60
2022-09-12T18:14:19.350Z,19.40
2022-09-12T18:16:47.908Z,19.50
2022-09-12T18:19:16.511Z,19.30
2022-09-12T18:21:44.581Z,19.20
2022-09-12T18:24:13.040Z,19.30
2022-09-12T18:26:41.044Z,19.20
2022-09-12T18:29:09.004Z,19.10
2022-09-12T18:31:50.228Z,18.90
2022-09-12T18:34:31.249Z,19.00
2022-09-12T18:37:08.171Z,18.90
2022-09-12T18:39:45.683Z,18.70
2022-09-12T18:42:13.672Z,18.70
2022-09-12T18:44:43.339Z,18.80
2022-09-12T18:47:12.798Z,19.10
2022-09-12T18:49:40.777Z,19.30
2022-09-12T18:52:09.410Z,19.20
2022-09-12T18:54:37.374Z,19.00
2022-09-12T18:57:05.563Z,18.60
2022-09-12T18:59:33.495Z,18.40
2022-09-12T19:02:01.722Z,18.20
2022-09-12T19:04:31.271Z,18.00
2022-09-12T19:06:59.335Z,18.00
2022-09-12T19:09:27.406Z,18.00
2022-09-12T19:11:55.353Z,17.90
2022-09-12T19:14:24.906Z,17.90
2022-09-12T19:16:53.887Z,17.90
2022-09-12T19:19:22.477Z,17.90
2022-09-12T19:21:51.972Z,17.90
2022-09-12T19:24:21.759Z,17.80
2022-09-12T19:26:50.411Z,17.70
2022-09-12T19:29:18.406Z,17.80
2022-09-12T19:31:47.160Z,17.70
2022-09-12T19:34:15.702Z,17.70
2022-09-12T19:36:45.743Z,17.60
2022-09-12T19:39:17.113Z,17.50
2022-09-12T19:41:45.821Z,17.50
2022-09-12T19:44:14.324Z,17.50
2022-09-12T19:46:42.618Z,17.60
2022-09-12T19:49:13.166Z,17.50
2022-09-12T19:51:42.099Z,17.40
2022-09-12T19:54:10.361Z,17.50
2022-09-12T19:56:40.675Z,17.50
2022-09-12T19:59:10.022Z,17.50
2022-09-12T20:01:38.573Z,17.30
2022-09-12T20:04:07.662Z,17.20
2022-09-12T20:06:36.866Z,17.20
2022-09-12T20:09:05.426Z,17.20
2022-09-12T20:11:33.923Z,17.20
2022-09-12T20:14:03.863Z,17.50
2022-09-12T20:16:33.534Z,17.10
2022-09-12T20:19:03.832Z,17.20
2022-09-12T20:21:34.206Z,17.50
2022-09-12T20:24:04.129Z,17.30
2022-09-12T20:26:32.349Z,17.10
2022-09-12T20:29:00.297Z,16.90
2022-09-12T20:31:30.309Z,16.80
2022-09-12T20:33:58.830Z,16.80
2022-09-12T20:36:27.010Z,16.70
2022-09-12T20:38:57.948Z,16.60
2022-09-12T20:41:26.950Z,16.60
2022-09-12T20:43:57.699Z,16.60
2022-09-12T20:46:27.313Z,16.50
2022-09-12T20:48:57.054Z,16.50
2022-09-12T20:51:26.808Z,16.40
2022-09-12T20:53:55.466Z,16.40
2022-09-12T20:56:24.526Z,16.50
2022-09-12T20:58:52.588Z,16.50
2022-09-12T21:01:20.990Z,16.40
2022-09-12T21:03:49.746Z,16.40
2022-09-12T21:06:19.833Z,16.40
2022-09-12T21:08:48.633Z,16.40
2022-09-12T21:11:17.612Z,16.40
2022-09-12T21:13:45.724Z,16.40
2022-09-12T21:16:14.943Z,16.40
2022-09-12T21:18:43.239Z,16.70
2022-09-12T21:21:13.251Z,16.90
2022-09-12T21:23:42.986Z,16.90
2022-09-12T21:26:11.966Z,16.70
2022-09-12T21:28:39.931Z,16.50
2022-09-12T21:31:08.572Z,16.40
2022-09-12T21:33:36.683Z,16.40
2022-09-12T21:36:05.640Z,16.40
2022-09-12T21:38:34.161Z,16.40
2022-09-12T21:41:08.812Z,16.50
2022-09-12T21:43:37.354Z,16.50
2022-09-12T21:46:06.808Z,16.40
2022-09-12T21:48:35.176Z,16.50
2022-09-12T21:51:03.467Z,16.50
2022-09-12T21:53:31.841Z,16.50
2022-09-12T21:56:03.089Z,16.40
2022-09-12T21:58:32.297Z,16.60
2022-09-12T22:01:00.914Z,16.80
2022-09-12T22:03:29.707Z,16.60
2022-09-12T22:06:02.645Z,16.50
2022-09-12T22:08:32.386Z,16.30
2022-09-12T22:11:02.090Z,16.20
2022-09-12T22:13:31.979Z,16.30
2022-09-12T22:16:02.973Z,16.40
2022-09-12T22:18:32.919Z,16.50
2022-09-12T22:21:02.468Z,16.30
2022-09-12T22:23:48.050Z,16.40
2022-09-12T22:26:16.392Z,16.40
2022-09-12T22:28:44.972Z,16.40
2022-09-12T22:31:15.252Z,16.30
2022-09-12T22:33:43.507Z,16.30
2022-09-12T22:36:11.964Z,16.20
2022-09-12T22:38:40.196Z,16.20
2022-09-12T22:41:10.105Z,16.20
2022-09-12T22:43:38.881Z,16.30
2022-09-12T22:46:07.697Z,16.10
2022-09-12T22:48:37.712Z,16.10
2022-09-12T22:51:06.013Z,16.20
2022-09-12T22:53:34.205Z,16.10
2022-09-12T22:56:02.356Z,15.90
2022-09-12T22:58:30.269Z,15.70
2022-09-12T23:00:58.244Z,15.60
2022-09-12T23:03:26.449Z,15.60
2022-09-12T23:05:55.710Z,15.60
2022-09-12T23:08:23.636Z,15.80
2022-09-12T23:10:51.717Z,15.70
2022-09-12T23:13:19.601Z,15.60
2022-09-12T23:15:47.479Z,15.70
2022-09-12T23:18:15.343Z,15.70
2022-09-12T23:20:43.201Z,15.60
2022-09-12T23:23:12.610Z,15.60
2022-09-12T23:25:40.431Z,15.70
2022-09-12T23:28:08.532Z,15.60
2022-09-12T23:30:37.946Z,15.70
2022-09-12T23:33:05.858Z,15.50
2022-09-12T23:35:34.028Z,15.50
2022-09-12T23:38:01.828Z,15.60
2022-09-12T23:40:32.310Z,15.50
2022-09-12T23:43:00.143Z,15.40
2022-09-12T23:45:27.985Z,15.40
2022-09-12T23:47:55.898Z,15.20
2022-09-12T23:50:23.742Z,15.10
2022-09-12T23:52:51.695Z,15.00
2022-09-12T23:55:19.551Z,14.90
2022-09-12T23:57:48.733Z,14.80
